Time;durP1;ratioP1;P1;durP2;ratioP2;P2;SDS_P1;SDS_P2;PMS_P1;PMS_P2;Temp;Humidity;BMP_temperature;BMP_pressure;BME280_temperature;BME280_humidity;BME280_pressure;Samples;Min_cycle;Max_cycle;Signal;HPM_P1;HPM_P2
2021/12/28 00:00:43;;;;;;;108.07;55.63;;;;;;;-3.52;86.35;99967.06;7399622;19;20011;-64
2021/12/28 00:03:11;;;;;;;105.22;55.10;;;;;;;-3.54;86.07;99970.41;7399324;19;20022;-64
2021/12/28 00:05:39;;;;;;;113.47;58.17;;;;;;;-3.56;86.32;99969.50;7396650;19;20025;-64
2021/12/28 00:08:07;;;;;;;108.80;55.67;;;;;;;-3.66;86.30;99948.78;7396540;19;20027;-65
2021/12/28 00:10:35;;;;;;;108.90;56.10;;;;;;;-3.61;86.19;99948.91;7398862;19;20031;-65
2021/12/28 00:13:04;;;;;;;112.22;55.63;;;;;;;-3.64;86.42;99959.06;7398654;19;20015;-66
2021/12/28 00:15:48;;;;;;;114.28;60.05;;;;;;;-3.66;86.50;99961.59;7397467;19;20049;-65
2021/12/28 00:18:19;;;;;;;116.00;58.65;;;;;;;-3.69;86.41;99955.53;7395847;19;20494;-65
2021/12/28 00:20:49;;;;;;;113.25;57.42;;;;;;;-3.72;86.37;99945.22;7398753;19;20022;-65
2021/12/28 00:23:20;;;;;;;114.53;57.03;;;;;;;-3.73;86.54;99943.50;7398861;19;20020;-65
2021/12/28 00:25:49;;;;;;;111.10;56.97;;;;;;;-3.76;86.56;99937.44;7396999;19;20018;-65
2021/12/28 00:28:18;;;;;;;117.85;56.50;;;;;;;-3.78;86.51;99941.69;7398134;19;20022;-65
2021/12/28 00:30:47;;;;;;;119.70;60.50;;;;;;;-3.78;86.61;99944.25;7398227;19;20064;-66
2021/12/28 00:33:19;;;;;;;117.05;56.40;;;;;;;-3.81;86.35;99940.75;7395458;19;20486;-64
2021/12/28 00:35:48;;;;;;;120.30;59.22;;;;;;;-3.87;86.77;99941.44;7395918;19;20025;-65
2021/12/28 00:38:22;;;;;;;119.00;57.90;;;;;;;-3.84;86.68;99938.97;7397842;19;20023;-65
2021/12/28 00:40:52;;;;;;;111.03;57.85;;;;;;;-3.85;86.49;99942.38;7398316;19;20025;-64
2021/12/28 00:43:21;;;;;;;120.65;58.63;;;;;;;-3.86;86.61;99932.09;7398558;19;20028;-66
2021/12/28 00:45:50;;;;;;;112.15;59.10;;;;;;;-3.87;86.55;99925.22;7396253;19;20015;-65
2021/12/28 00:48:20;;;;;;;113.57;59.30;;;;;;;-3.87;86.61;99930.34;7398345;19;20038;-65
2021/12/28 00:50:49;;;;;;;119.18;61.85;;;;;;;-3.88;86.72;99918.34;7398008;19;20027;-66
2021/12/28 00:53:18;;;;;;;120.47;60.15;;;;;;;-3.86;86.71;99909.88;7397572;19;20025;-64
2021/12/28 00:55:46;;;;;;;123.05;60.17;;;;;;;-3.87;86.70;99903.00;7395370;19;20022;-65
2021/12/28 00:58:14;;;;;;;125.20;63.00;;;;;;;-3.85;86.94;99921.00;7397250;19;20011;-65
2021/12/28 01:00:43;;;;;;;111.75;59.80;;;;;;;-3.84;86.93;99913.34;7392944;19;20018;-65
2021/12/28 01:03:12;;;;;;;117.13;60.22;;;;;;;-3.83;86.93;99909.97;7395226;19;20049;-65
2021/12/28 01:05:44;;;;;;;119.10;59.35;;;;;;;-3.81;87.03;99921.09;7395143;19;20014;-65
2021/12/28 01:08:13;;;;;;;128.30;63.47;;;;;;;-3.82;86.90;99891.16;7397386;19;20014;-65
2021/12/28 01:10:45;;;;;;;119.05;58.10;;;;;;;-3.81;87.08;99910.00;7394750;19;20479;-65
2021/12/28 01:13:14;;;;;;;124.32;60.08;;;;;;;-3.82;87.08;99913.38;7395456;19;20056;-66
2021/12/28 01:15:43;;;;;;;121.80;60.13;;;;;;;-3.82;86.69;99910.81;7395003;19;20027;-65
2021/12/28 01:18:12;;;;;;;128.40;63.42;;;;;;;-3.84;86.94;99915.91;7395085;19;20010;-66
2021/12/28 01:20:44;;;;;;;116.70;62.00;;;;;;;-3.85;87.06;99906.50;7394848;19;20037;-65
2021/12/28 01:23:13;;;;;;;126.97;64.03;;;;;;;-3.82;87.20;99927.03;7394765;19;20476;-65
2021/12/28 01:25:42;;;;;;;120.05;62.53;;;;;;;-3.81;87.19;99925.38;7395365;19;20022;-66
2021/12/28 01:28:10;;;;;;;124.18;62.15;;;;;;;-3.81;87.34;99915.97;7396310;19;20023;-66
2021/12/28 01:30:40;;;;;;;121.35;62.30;;;;;;;-3.79;87.19;99922.00;7394679;19;20022;-65
2021/12/28 01:33:10;;;;;;;115.95;58.63;;;;;;;-3.81;87.33;99923.66;7396236;19;20024;-65
2021/12/28 01:35:47;;;;;;;115.55;58.53;;;;;;;-3.77;87.25;99925.50;7394340;19;20018;-65
2021/12/28 01:38:16;;;;;;;117.75;60.08;;;;;;;-3.74;87.33;99921.25;7394312;19;20381;-65
2021/12/28 01:40:44;;;;;;;125.95;64.45;;;;;;;-3.74;87.27;99904.19;7394190;19;20019;-65
2021/12/28 01:43:15;;;;;;;136.43;62.58;;;;;;;-3.72;87.18;99893.97;7393712;19;20381;-65
2021/12/28 01:45:48;;;;;;;124.30;61.58;;;;;;;-3.70;87.19;99893.16;7394263;19;20019;-65
2021/12/28 01:48:24;;;;;;;125.78;61.95;;;;;;;-3.67;87.19;99887.22;7395609;19;20014;-65
2021/12/28 01:50:58;;;;;;;120.75;62.30;;;;;;;-3.65;87.17;99880.41;7394415;19;20022;-65
2021/12/28 01:53:34;;;;;;;127.15;61.97;;;;;;;-3.61;87.28;99884.81;7396016;19;20010;-66
2021/12/28 01:56:06;;;;;;;109.93;57.17;;;;;;;-3.59;87.18;99888.25;7394317;19;20032;-66
2021/12/28 01:58:35;;;;;;;118.05;59.00;;;;;;;-3.56;87.14;99885.78;7394175;19;20027;-65
2021/12/28 02:01:03;;;;;;;123.63;63.50;;;;;;;-3.53;87.14;99890.09;7395266;19;20035;-65
2021/12/28 02:03:33;;;;;;;117.60;61.33;;;;;;;-3.50;87.50;99897.84;7395269;19;20018;-65
2021/12/28 02:06:04;;;;;;;117.18;59.50;;;;;;;-3.48;87.35;99894.47;7393495;19;20349;-65
2021/12/28 02:08:32;;;;;;;122.00;59.72;;;;;;;-3.45;87.17;99885.97;7395547;19;20025;-66
2021/12/28 02:11:00;;;;;;;115.82;58.97;;;;;;;-3.44;87.21;99882.59;7392846;19;20094;-65
2021/12/28 02:13:29;;;;;;;120.28;60.60;;;;;;;-3.44;86.99;99869.75;7396693;19;20010;-66
2021/12/28 02:15:59;;;;;;;109.47;59.00;;;;;;;-3.45;87.26;99865.47;7393014;19;20015;-66
2021/12/28 02:18:29;;;;;;;118.22;60.50;;;;;;;-3.46;86.71;99859.47;7392732;19;20475;-66
2021/12/28 02:21:02;;;;;;;116.55;60.55;;;;;;;-3.47;87.09;99854.31;7393738;19;20032;-65
2021/12/28 02:23:30;;;;;;;118.65;57.70;;;;;;;-3.46;87.46;99863.75;7395598;19;20349;-66
2021/12/28 02:25:59;;;;;;;116.28;60.13;;;;;;;-3.46;87.19;99864.63;7392672;19;20034;-65
2021/12/28 02:28:27;;;;;;;109.95;57.70;;;;;;;-3.46;87.52;99856.91;7394577;19;20023;-66
2021/12/28 02:30:58;;;;;;;115.60;55.97;;;;;;;-3.46;87.49;99854.34;7392543;19;20035;-65
2021/12/28 02:33:28;;;;;;;119.85;59.00;;;;;;;-3.46;87.16;99844.09;7394901;19;20017;-66
2021/12/28 02:36:02;;;;;;;117.40;59.83;;;;;;;-3.46;87.39;99845.81;7392969;19;20032;-65
2021/12/28 02:38:33;;;;;;;115.05;56.88;;;;;;;-3.48;87.21;99834.63;7394799;19;20338;-65
2021/12/28 02:41:01;;;;;;;114.18;58.30;;;;;;;-3.46;87.44;99838.13;7392553;19;20018;-66
2021/12/28 02:43:30;;;;;;;117.40;59.83;;;;;;;-3.47;87.50;99846.63;7392792;19;20035;-66
2021/12/28 02:46:02;;;;;;;119.03;59.80;;;;;;;-3.45;87.55;99844.94;7393231;19;20028;-66
2021/12/28 02:48:30;;;;;;;118.35;59.33;;;;;;;-3.45;87.48;99839.81;7395049;19;20025;-66
2021/12/28 02:51:04;;;;;;;110.55;57.28;;;;;;;-3.44;87.45;99834.75;7392810;19;20011;-66
2021/12/28 02:53:32;;;;;;;118.55;59.22;;;;;;;-3.41;87.39;99845.88;7395013;19;20018;-66
2021/12/28 02:56:01;;;;;;;112.95;59.30;;;;;;;-3.42;87.25;99833.88;7392978;19;20035;-66
2021/12/28 02:58:32;;;;;;;112.20;58.38;;;;;;;-3.38;87.59;99835.69;7392387;19;20015;-66
2021/12/28 03:01:05;;;;;;;118.82;59.42;;;;;;;-3.36;87.26;99824.63;7391942;19;20391;-66
2021/12/28 03:03:34;;;;;;;121.97;63.05;;;;;;;-3.34;86.84;99822.94;7392742;19;20015;-66
2021/12/28 03:06:08;;;;;;;123.75;60.88;;;;;;;-3.31;86.89;99811.88;7392539;19;20015;-66
2021/12/28 03:08:39;;;;;;;116.68;60.05;;;;;;;-3.30;86.67;99814.50;7394512;19;20031;-66
2021/12/28 03:11:08;;;;;;;109.28;58.72;;;;;;;-3.27;87.16;99808.56;7392263;19;20029;-66
2021/12/28 03:13:39;;;;;;;118.88;61.78;;;;;;;-3.24;87.28;99808.59;7393940;19;20011;-66
2021/12/28 03:16:08;;;;;;;116.63;59.70;;;;;;;-3.23;87.54;99805.22;7391836;19;20032;-66
2021/12/28 03:18:37;;;;;;;117.65;60.83;;;;;;;-3.19;87.54;99799.28;7391088;19;20014;-66
2021/12/28 03:21:11;;;;;;;119.50;59.40;;;;;;;-3.16;87.36;99799.38;7393441;19;20036;-66
2021/12/28 03:23:40;;;;;;;119.78;59.63;;;;;;;-3.14;87.01;99794.25;7397079;19;20010;-66
2021/12/28 03:26:09;;;;;;;117.20;59.55;;;;;;;-3.11;87.05;99794.31;7398325;19;20018;-65
2021/12/28 03:28:40;;;;;;;118.65;56.70;;;;;;;-3.09;86.82;99776.38;7400682;19;20479;-66
2021/12/28 03:31:12;;;;;;;103.28;56.17;;;;;;;-3.07;87.02;99770.44;7398457;19;20015;-65
2021/12/28 03:33:43;;;;;;;112.40;58.85;;;;;;;-3.05;87.28;99771.31;7400922;19;20022;-66
2021/12/28 03:36:15;;;;;;;116.15;58.65;;;;;;;-3.01;86.91;99760.28;7398091;19;20018;-66
2021/12/28 03:38:44;;;;;;;119.47;59.78;;;;;;;-3.00;86.77;99762.00;7398256;19;20018;-66
2021/12/28 03:41:14;;;;;;;109.57;57.13;;;;;;;-2.99;86.53;99756.03;7400432;19;20019;-66
2021/12/28 03:43:44;;;;;;;117.57;56.72;;;;;;;-2.97;86.75;99751.81;7400334;19;20038;-66
2021/12/28 03:46:13;;;;;;;113.78;57.28;;;;;;;-2.93;86.82;99755.28;7397688;19;20018;-66
2021/12/28 03:48:42;;;;;;;108.68;55.00;;;;;;;-2.92;86.76;99733.03;7400279;19;20011;-66
2021/12/28 03:51:11;;;;;;;111.60;55.92;;;;;;;-2.89;86.54;99728.81;7397613;19;20040;-66
2021/12/28 03:53:41;;;;;;;114.65;58.10;;;;;;;-2.90;85.67;99715.97;7397596;19;20071;-66
2021/12/28 03:56:11;;;;;;;111.13;56.95;;;;;;;-2.86;86.57;99718.59;7397635;19;20015;-66
2021/12/28 03:58:42;;;;;;;110.70;55.97;;;;;;;-2.85;86.46;99719.47;7399884;19;20011;-66
2021/12/28 04:01:12;;;;;;;115.60;57.63;;;;;;;-2.83;86.70;99731.50;7400197;19;20010;-66
2021/12/28 04:03:40;;;;;;;109.10;58.17;;;;;;;-2.80;86.90;99744.38;7397204;19;20405;-66
2021/12/28 04:06:10;;;;;;;113.13;54.95;;;;;;;-2.78;86.88;99742.69;7397341;19;20018;-66
2021/12/28 04:08:42;;;;;;;107.65;55.05;;;;;;;-2.74;86.79;99747.88;7399523;19;20014;-66
2021/12/28 04:11:25;;;;;;;114.50;56.78;;;;;;;-2.73;86.51;99737.66;7397331;19;20102;-66
2021/12/28 04:14:00;;;;;;;108.13;53.35;;;;;;;-2.71;86.56;99728.25;7399766;19;20014;-66
2021/12/28 04:16:28;;;;;;;;;;;;;;;-2.71;85.64;99723.13;7397448;19;20371;-66
2021/12/28 04:18:57;;;;;;;113.03;56.53;;;;;;;-2.70;86.03;99726.56;7399157;19;19932;-66
2021/12/28 04:21:26;;;;;;;117.13;57.47;;;;;;;-2.70;86.02;99722.28;7398970;19;20014;-66
2021/12/28 04:23:56;;;;;;;110.82;57.75;;;;;;;-2.69;86.38;99729.16;7398963;19;20064;-65
2021/12/28 04:26:26;;;;;;;106.28;56.75;;;;;;;-2.68;86.51;99722.28;7396443;19;20479;-66
2021/12/28 04:28:55;;;;;;;116.38;56.70;;;;;;;-2.66;86.83;99720.63;7396592;19;20035;-66
2021/12/28 04:31:23;;;;;;;110.10;57.25;;;;;;;-2.64;86.54;99724.94;7396435;19;20022;-66
2021/12/28 04:33:51;;;;;;;114.90;57.58;;;;;;;-2.62;86.38;99727.53;7398377;19;20014;-66
2021/12/28 04:36:20;;;;;;;111.85;57.90;;;;;;;-2.67;85.74;99713.75;7396386;19;20031;-66
2021/12/28 04:38:49;;;;;;;113.40;58.95;;;;;;;-2.62;86.17;99727.53;7398340;19;20086;-66
2021/12/28 04:41:20;;;;;;;116.88;57.75;;;;;;;-2.62;86.46;99728.41;7396139;19;20030;-66
2021/12/28 04:43:49;;;;;;;119.82;60.47;;;;;;;-2.61;85.89;99724.13;7398376;19;20019;-66
2021/12/28 04:46:17;;;;;;;118.88;60.03;;;;;;;-2.60;85.85;99720.72;7396271;19;20039;-66
2021/12/28 04:48:46;;;;;;;120.90;59.75;;;;;;;-2.59;86.26;99730.16;7397582;19;20031;-66
2021/12/28 04:51:14;;;;;;;119.22;59.78;;;;;;;-2.57;86.34;99732.75;7395967;19;20031;-66
2021/12/28 04:53:42;;;;;;;116.35;60.50;;;;;;;-2.57;86.24;99736.16;7397817;19;20027;-66
2021/12/28 04:56:10;;;;;;;114.88;61.15;;;;;;;-2.56;86.38;99737.91;7396044;19;20023;-66
2021/12/28 04:58:41;;;;;;;119.25;59.05;;;;;;;-2.54;86.57;99723.38;7397620;19;20014;-66
2021/12/28 05:01:09;;;;;;;116.30;59.25;;;;;;;-2.51;86.30;99722.56;7397227;19;20429;-66
2021/12/28 05:03:37;;;;;;;112.18;59.92;;;;;;;-2.52;86.72;99713.97;7395676;19;20480;-66
2021/12/28 05:06:06;;;;;;;120.30;60.85;;;;;;;-2.49;86.41;99714.03;7395873;19;20018;-66
2021/12/28 05:08:34;;;;;;;116.97;58.08;;;;;;;-2.47;86.37;99711.50;7395483;19;20039;-66
2021/12/28 05:11:02;;;;;;;119.28;59.38;;;;;;;-2.46;86.49;99706.38;7396259;19;20026;-66
2021/12/28 05:13:30;;;;;;;114.35;57.33;;;;;;;-2.46;86.18;99706.38;7397367;19;20018;-66
2021/12/28 05:16:01;;;;;;;112.82;56.25;;;;;;;-2.43;86.30;99705.53;7395545;19;20492;-66
2021/12/28 05:18:29;;;;;;;119.10;60.17;;;;;;;-2.43;86.54;99708.13;7395256;19;20018;-66
2021/12/28 05:20:57;;;;;;;116.78;58.30;;;;;;;-2.41;86.25;99696.16;7396856;19;20024;-66
2021/12/28 05:23:25;;;;;;;115.57;59.65;;;;;;;-2.39;86.29;99693.63;7396571;19;20479;-66
2021/12/28 05:25:54;;;;;;;119.18;58.80;;;;;;;-2.39;85.85;99694.50;7395312;19;20427;-66
2021/12/28 05:28:22;;;;;;;116.80;59.92;;;;;;;-2.37;85.94;99689.38;7395601;19;20386;-66
2021/12/28 05:30:50;;;;;;;117.55;59.72;;;;;;;-2.37;86.01;99684.22;7395861;19;20018;-65
2021/12/28 05:33:21;;;;;;;120.72;59.10;;;;;;;-2.37;85.96;99672.25;7394569;19;20035;-65
2021/12/28 05:35:49;;;;;;;114.45;59.17;;;;;;;-2.35;86.14;99674.81;7395538;19;20035;-66
2021/12/28 05:38:17;;;;;;;111.40;57.80;;;;;;;-2.35;85.64;99665.44;7396512;19;20023;-65
2021/12/28 05:40:45;;;;;;;116.15;58.30;;;;;;;-2.35;86.18;99662.84;7396505;19;20018;-66
2021/12/28 05:43:14;;;;;;;120.90;61.17;;;;;;;-2.35;85.38;99670.56;7394864;19;20022;-66
2021/12/28 05:45:42;;;;;;;111.18;56.92;;;;;;;-2.35;86.01;99665.44;7393776;19;20022;-66
2021/12/28 05:48:10;;;;;;;120.15;58.78;;;;;;;-2.34;86.12;99663.72;7396136;19;20015;-66
2021/12/28 05:50:41;;;;;;;116.43;57.30;;;;;;;-2.33;86.10;99666.28;7395394;19;20022;-66
2021/12/28 05:53:09;;;;;;;109.55;56.25;;;;;;;-2.31;85.94;99666.34;7396403;19;20019;-65
2021/12/28 05:55:37;;;;;;;118.18;58.38;;;;;;;-2.30;85.82;99673.19;7394822;19;20022;-66
2021/12/28 05:58:06;;;;;;;113.72;57.35;;;;;;;-2.30;85.72;99665.47;7393755;19;20026;-65
2021/12/28 06:00:34;;;;;;;110.05;59.17;;;;;;;-2.28;86.24;99661.22;7395542;19;20035;-65
2021/12/28 06:03:02;;;;;;;108.20;54.72;;;;;;;-2.27;86.46;99660.38;7394054;19;20035;-66
2021/12/28 06:05:31;;;;;;;119.35;57.50;;;;;;;-2.24;86.35;99649.28;7393301;19;20479;-66
2021/12/28 06:08:01;;;;;;;111.70;54.90;;;;;;;-2.22;86.49;99653.59;7395212;19;20022;-66
2021/12/28 06:10:30;;;;;;;114.82;55.55;;;;;;;-2.21;86.69;99647.63;7395255;19;20032;-66
2021/12/28 06:12:58;;;;;;;106.53;56.03;;;;;;;-2.19;86.64;99655.34;7393654;19;20022;-66
2021/12/28 06:15:26;;;;;;;111.88;56.13;;;;;;;-2.18;86.39;99650.22;7393457;19;20035;-67
2021/12/28 06:17:54;;;;;;;109.68;55.33;;;;;;;-2.15;86.60;99657.09;7393376;19;20425;-66
2021/12/28 06:20:22;;;;;;;108.43;55.85;;;;;;;-2.13;86.55;99661.41;7395179;19;20416;-66
2021/12/28 06:22:51;;;;;;;107.80;55.70;;;;;;;-2.11;86.78;99663.16;7395103;19;20020;-67
2021/12/28 06:25:21;;;;;;;110.70;57.63;;;;;;;-2.08;86.57;99658.06;7392938;19;20023;-65
2021/12/28 06:27:49;;;;;;;108.53;55.17;;;;;;;-2.06;86.63;99658.91;7395167;19;20022;-65
2021/12/28 06:30:18;;;;;;;110.75;55.03;;;;;;;-2.05;86.88;99671.78;7394699;19;20026;-67
2021/12/28 06:32:47;;;;;;;108.70;55.60;;;;;;;-2.03;86.85;99664.97;7394836;19;20019;-67
2021/12/28 06:35:15;;;;;;;108.68;57.00;;;;;;;-2.00;86.97;99661.56;7392841;19;20026;-66
2021/12/28 06:37:43;;;;;;;106.18;55.10;;;;;;;-1.99;86.55;99664.16;7394727;19;20022;-66
2021/12/28 06:40:13;;;;;;;110.68;54.65;;;;;;;-1.97;86.65;99659.06;7392769;19;20023;-66
2021/12/28 06:42:44;;;;;;;108.03;55.08;;;;;;;-1.94;86.97;99656.50;7394321;19;20025;-68
2021/12/28 06:45:13;;;;;;;103.32;53.72;;;;;;;-1.93;86.47;99658.22;7393767;19;20015;-66
2021/12/28 06:47:41;;;;;;;103.18;54.90;;;;;;;-1.90;86.89;99647.13;7394615;19;20019;-67
2021/12/28 06:50:10;;;;;;;108.50;53.22;;;;;;;-1.88;86.80;99643.72;7394595;19;20014;-66
2021/12/28 06:52:39;;;;;;;103.72;52.53;;;;;;;-1.85;86.25;99640.31;7392378;19;20035;-67
2021/12/28 06:55:09;;;;;;;98.88;52.05;;;;;;;-1.83;86.87;99639.47;7393548;19;20022;-65
2021/12/28 06:57:38;;;;;;;102.97;54.30;;;;;;;-1.79;86.93;99640.38;7392891;19;20044;-65
2021/12/28 07:00:12;;;;;;;103.72;52.60;;;;;;;-1.79;86.81;99637.81;7398511;19;20362;-65
2021/12/28 07:02:40;;;;;;;99.53;52.65;;;;;;;-1.77;86.76;99627.53;7398752;19;20423;-65
2021/12/28 07:05:10;;;;;;;94.53;51.28;;;;;;;-1.78;86.47;99624.13;7400085;19;20018;-65
2021/12/28 07:07:38;;;;;;;102.45;52.42;;;;;;;-1.78;86.58;99618.97;7401411;19;20045;-65
2021/12/28 07:10:08;;;;;;;103.53;53.13;;;;;;;-1.76;86.40;99618.97;7401204;19;20018;-66
2021/12/28 07:12:44;;;;;;;106.78;56.05;;;;;;;-1.75;86.82;99602.72;7398615;19;20018;-66
2021/12/28 07:15:15;;;;;;;95.45;51.28;;;;;;;-1.75;86.98;99601.00;7399466;19;20479;-66
2021/12/28 07:17:43;;;;;;;101.95;53.05;;;;;;;-1.72;86.92;99602.72;7399795;19;20038;-66
2021/12/28 07:20:12;;;;;;;95.53;51.08;;;;;;;-1.72;87.12;99615.59;7398415;19;20022;-65
2021/12/28 07:22:40;;;;;;;101.25;52.08;;;;;;;-1.69;86.98;99611.34;7397698;19;20393;-66
2021/12/28 07:25:10;;;;;;;98.15;52.97;;;;;;;-1.67;87.17;99613.91;7399603;19;20353;-65
2021/12/28 07:27:39;;;;;;;97.57;49.97;;;;;;;-1.65;87.45;99618.22;7400595;19;20036;-65
2021/12/28 07:30:10;;;;;;;114.47;55.15;;;;;;;-1.61;87.37;99615.72;7397842;19;20032;-65
2021/12/28 07:32:42;;;;;;;103.05;52.67;;;;;;;-1.59;87.46;99607.16;7398321;19;20028;-65
2021/12/28 07:35:11;;;;;;;102.53;52.40;;;;;;;-1.55;87.51;99618.34;7399667;19;20031;-64
2021/12/28 07:37:40;;;;;;;103.15;52.78;;;;;;;-1.55;87.49;99614.03;7401625;19;20040;-66
2021/12/28 07:40:10;;;;;;;100.45;49.95;;;;;;;-1.53;87.34;99602.06;7397434;19;20378;-65
2021/12/28 07:42:39;;;;;;;96.55;51.50;;;;;;;-1.52;87.63;99603.75;7400763;19;20029;-65
2021/12/28 07:45:10;;;;;;;98.78;51.25;;;;;;;-1.55;87.58;99598.59;7397425;19;20082;-65
2021/12/28 07:47:41;;;;;;;93.00;49.53;;;;;;;-1.52;87.77;99611.47;7397962;19;20018;-69
2021/12/28 07:50:11;;;;;;;88.70;48.60;;;;;;;-1.50;87.43;99616.66;7397558;19;20011;-64
2021/12/28 07:52:46;;;;;;;100.57;50.22;;;;;;;-1.48;87.50;99614.94;7398340;19;20019;-65
2021/12/28 07:55:14;;;;;;;;;;;;;;;-1.45;87.57;99624.41;7398658;19;20026;-67
2021/12/28 07:57:43;;;;;;;95.35;48.90;;;;;;;-1.44;87.74;99614.16;7399988;19;19922;-68
2021/12/28 08:00:14;;;;;;;95.80;49.05;;;;;;;-1.42;87.83;99612.44;7399669;19;20014;-70
2021/12/28 08:02:46;;;;;;;95.35;50.63;;;;;;;-1.40;87.98;99610.75;7400140;19;20014;-71
2021/12/28 08:05:15;;;;;;;94.45;47.40;;;;;;;-1.36;87.98;99606.50;7398595;19;20044;-67
2021/12/28 08:07:43;;;;;;;90.78;49.13;;;;;;;-1.33;87.93;99606.50;7399609;19;20007;-68
2021/12/28 08:10:13;;;;;;;102.25;49.17;;;;;;;-1.31;87.91;99607.41;7395956;19;20026;-64
2021/12/28 08:12:41;;;;;;;98.63;51.65;;;;;;;-1.28;87.87;99601.41;7396983;19;20019;-66
2021/12/28 08:15:11;;;;;;;103.25;55.05;;;;;;;-1.27;87.96;99592.84;7398158;19;20130;-69
2021/12/28 08:17:39;;;;;;;99.25;52.25;;;;;;;-1.23;88.11;99595.44;7398013;19;20007;-66
2021/12/28 08:20:13;;;;;;;95.22;50.85;;;;;;;-1.20;88.13;99582.59;7398692;19;20014;-65
2021/12/28 08:22:43;;;;;;;89.10;48.13;;;;;;;-1.18;88.14;99583.47;7397145;19;20018;-65
2021/12/28 08:25:14;;;;;;;93.50;49.10;;;;;;;-1.15;88.44;99588.66;7396512;19;20032;-66
2021/12/28 08:27:43;;;;;;;90.63;48.63;;;;;;;-1.10;88.21;99577.50;7399815;19;20366;-63
2021/12/28 08:30:13;;;;;;;88.47;47.20;;;;;;;-1.06;88.30;99584.41;7398803;19;20026;-66
2021/12/28 08:32:42;;;;;;;91.57;47.33;;;;;;;-1.05;88.44;99589.59;7396331;19;20023;-65
2021/12/28 08:35:13;;;;;;;90.90;48.08;;;;;;;-1.01;88.60;99590.44;7397224;19;20014;-65
2021/12/28 08:37:42;;;;;;;88.75;47.55;;;;;;;-0.96;88.62;99598.19;7398735;19;20031;-66
2021/12/28 08:40:13;;;;;;;88.63;47.83;;;;;;;-0.93;88.61;99603.38;7398107;19;20015;-65
2021/12/28 08:42:41;;;;;;;95.80;48.63;;;;;;;-0.91;88.38;99605.13;7396529;19;20031;-66
2021/12/28 08:45:11;;;;;;;88.68;47.60;;;;;;;-0.86;88.67;99589.69;7397790;19;20035;-67
2021/12/28 08:47:39;;;;;;;88.15;46.67;;;;;;;-0.86;88.40;99577.69;7398247;19;20031;-66
2021/12/28 08:50:10;;;;;;;90.30;47.90;;;;;;;-0.80;88.49;99586.28;7398127;19;20035;-66
2021/12/28 08:52:41;;;;;;;84.07;44.85;;;;;;;-0.77;88.61;99581.16;7396436;19;20014;-66
2021/12/28 08:55:10;;;;;;;86.75;47.50;;;;;;;-0.73;88.71;99577.75;7397229;19;20392;-67
2021/12/28 08:57:39;;;;;;;80.00;45.92;;;;;;;-0.69;88.83;99587.22;7397859;19;20027;-66
2021/12/28 09:00:11;;;;;;;87.20;45.90;;;;;;;-0.67;88.87;99596.69;7396000;19;20014;-66
2021/12/28 09:02:39;;;;;;;84.93;46.17;;;;;;;-0.63;88.62;99587.25;7398332;19;20018;-66
2021/12/28 09:05:08;;;;;;;89.45;45.78;;;;;;;-0.58;88.80;99577.84;7395198;19;20413;-65
2021/12/28 09:07:36;;;;;;;84.45;44.65;;;;;;;-0.54;88.93;99583.88;7395858;19;20022;-66
2021/12/28 09:10:08;;;;;;;85.65;45.88;;;;;;;-0.51;88.96;99573.56;7395715;19;20035;-66
2021/12/28 09:12:36;;;;;;;82.30;45.55;;;;;;;-0.49;89.06;99566.72;7395897;19;20023;-65
2021/12/28 09:15:05;;;;;;;89.95;47.28;;;;;;;-0.47;88.99;99570.13;7394639;19;20382;-70
2021/12/28 09:17:34;;;;;;;87.47;46.40;;;;;;;-0.43;89.30;99565.84;7396372;19;20018;-66
2021/12/28 09:20:03;;;;;;;86.68;46.28;;;;;;;-0.41;89.08;99572.75;7396990;19;20040;-66
2021/12/28 09:22:31;;;;;;;86.25;46.05;;;;;;;-0.37;89.24;99564.19;7395168;19;20048;-66
2021/12/28 09:24:59;;;;;;;85.97;44.78;;;;;;;-0.34;89.55;99569.34;7396251;19;20022;-66
2021/12/28 09:27:29;;;;;;;92.80;48.63;;;;;;;-0.30;89.61;99570.22;7396879;19;20413;-66
2021/12/28 09:29:58;;;;;;;87.70;47.17;;;;;;;-0.25;89.85;99571.09;7395292;19;20031;-65
2021/12/28 09:32:26;;;;;;;102.40;51.05;;;;;;;-0.22;89.62;99571.09;7395748;19;20035;-65
2021/12/28 09:34:57;;;;;;;89.65;45.58;;;;;;;-0.17;89.85;99571.13;7394560;19;20018;-65
2021/12/28 09:37:26;;;;;;;85.38;45.25;;;;;;;-0.15;89.92;99561.69;7396765;19;20425;-64
2021/12/28 09:39:57;;;;;;;77.43;41.55;;;;;;;-0.08;90.14;99555.66;7396562;19;20119;-65
2021/12/28 09:42:25;;;;;;;78.45;42.45;;;;;;;-0.04;90.07;99552.25;7394825;19;20037;-65
2021/12/28 09:44:56;;;;;;;90.25;46.50;;;;;;;-0.02;90.09;99541.94;7395656;19;20036;-65
2021/12/28 09:47:25;;;;;;;89.78;47.03;;;;;;;0.06;90.43;99547.94;7394816;19;20015;-65
2021/12/28 09:49:53;;;;;;;82.20;44.13;;;;;;;0.12;90.26;99542.81;7396000;19;20027;-65
2021/12/28 09:52:21;;;;;;;88.53;44.13;;;;;;;0.18;90.64;99541.09;7395007;19;20014;-66
2021/12/28 09:54:50;;;;;;;76.78;39.67;;;;;;;0.23;90.47;99539.38;7395201;19;20479;-65
2021/12/28 09:57:19;;;;;;;68.75;39.10;;;;;;;0.29;90.40;99539.38;7395282;19;20503;-65
2021/12/28 09:59:48;;;;;;;73.15;37.35;;;;;;;0.35;90.46;99541.13;7395838;19;20024;-65
2021/12/28 10:02:20;;;;;;;71.93;39.38;;;;;;;0.40;90.78;99536.81;7395514;19;20022;-65
2021/12/28 10:04:56;;;;;;;70.15;35.85;;;;;;;0.44;90.72;99538.53;7394069;19;20022;-65
2021/12/28 10:07:27;;;;;;;64.72;32.63;;;;;;;0.48;90.72;99522.19;7395900;19;20107;-65
2021/12/28 10:09:56;;;;;;;60.95;32.42;;;;;;;0.54;90.58;99519.59;7396011;19;20023;-65
2021/12/28 10:12:32;;;;;;;57.83;32.08;;;;;;;0.59;90.74;99511.88;7393563;19;20027;-65
2021/12/28 10:15:03;;;;;;;58.75;31.13;;;;;;;0.64;90.65;99512.72;7393965;19;20015;-66
2021/12/28 10:17:35;;;;;;;57.13;31.40;;;;;;;0.70;90.64;99520.47;7395001;19;20011;-66
2021/12/28 10:20:07;;;;;;;55.90;29.42;;;;;;;0.74;90.50;99522.16;7393281;19;20015;-64
2021/12/28 10:22:38;;;;;;;58.50;30.73;;;;;;;0.78;90.62;99508.41;7395375;19;20018;-65
2021/12/28 10:25:12;;;;;;;51.88;29.77;;;;;;;0.83;90.62;99510.97;7394588;19;20022;-66
2021/12/28 10:27:42;;;;;;;57.10;30.15;;;;;;;0.88;90.72;99513.56;7393650;19;20015;-66
2021/12/28 10:30:14;;;;;;;52.55;28.52;;;;;;;0.92;90.69;99507.50;7395370;19;20091;-66
2021/12/28 10:32:47;;;;;;;51.47;27.48;;;;;;;0.95;90.34;99504.94;7396797;19;20135;-65
2021/12/28 10:35:19;;;;;;;55.50;28.52;;;;;;;1.00;90.40;99502.31;7401089;19;20040;-65
2021/12/28 10:37:50;;;;;;;48.13;26.88;;;;;;;1.05;90.63;99500.59;7402218;19;20361;-66
2021/12/28 10:40:25;;;;;;;47.45;27.15;;;;;;;1.09;90.61;99497.16;7399471;19;20015;-65
2021/12/28 10:43:00;;;;;;;53.97;27.13;;;;;;;1.12;90.45;99497.13;7401980;19;20035;-67
2021/12/28 10:45:36;;;;;;;45.50;25.95;;;;;;;1.14;89.95;99479.91;7398971;19;20035;-64
2021/12/28 10:48:10;;;;;;;43.92;24.10;;;;;;;1.18;90.17;99473.00;7399284;19;20070;-66
2021/12/28 10:50:43;;;;;;;47.22;26.55;;;;;;;1.22;90.06;99472.97;7403818;19;20019;-65
2021/12/28 10:53:18;;;;;;;47.58;25.95;;;;;;;1.26;90.41;99463.50;7400392;19;20011;-65
2021/12/28 10:55:48;;;;;;;49.38;27.00;;;;;;;1.29;89.74;99450.56;7399195;19;20098;-65
2021/12/28 10:58:27;;;;;;;44.55;24.88;;;;;;;1.30;89.34;99449.69;7398750;19;20561;-65
2021/12/28 11:00:56;;;;;;;44.33;25.80;;;;;;;1.34;89.98;99440.19;7399350;19;20022;-69
2021/12/28 11:03:30;;;;;;;43.58;24.05;;;;;;;1.37;89.40;99440.19;7398797;19;20023;-65
2021/12/28 11:06:00;;;;;;;42.10;23.38;;;;;;;1.39;89.56;99439.31;7400278;19;20019;-65
2021/12/28 11:08:30;;;;;;;38.95;23.60;;;;;;;1.42;89.56;99443.59;7403328;19;20040;-65
2021/12/28 11:11:02;;;;;;;39.78;22.70;;;;;;;1.45;89.46;99434.13;7402310;19;20028;-69
2021/12/28 11:13:33;;;;;;;39.78;23.45;;;;;;;1.49;88.78;99424.59;7399418;19;20032;-66
2021/12/28 11:16:02;;;;;;;35.88;20.35;;;;;;;1.52;89.10;99416.84;7397788;19;20518;-67
2021/12/28 11:18:36;;;;;;;37.88;21.45;;;;;;;1.55;89.23;99424.56;7398733;19;20010;-69
2021/12/28 11:21:12;;;;;;;40.55;22.73;;;;;;;1.57;88.34;99415.06;7398064;19;20519;-66
2021/12/28 11:23:41;;;;;;;36.05;21.27;;;;;;;1.60;88.72;99414.19;7400637;19;20035;-65
2021/12/28 11:26:14;;;;;;;42.05;21.80;;;;;;;1.59;88.16;99404.72;7397022;19;20483;-66